sensor_id;sensor_type;location;lat;lon;timestamp;pressure;altitude;pressure_sealevel;temperature;humidity
74542;BME280;63015;45.378;20.360;2023-02-27T00:00:32;100489.66;;;0.73;82.99
74542;BME280;63015;45.378;20.360;2023-02-27T00:02:33;100492.03;;;0.69;83.18
74542;BME280;63015;45.378;20.360;2023-02-27T00:04:33;100494.34;;;0.62;83.58
74542;BME280;63015;45.378;20.360;2023-02-27T00:06:34;100498.22;;;0.74;83.41
74542;BME280;63015;45.378;20.360;2023-02-27T00:08:35;100497.72;;;0.82;82.75
74542;BME280;63015;45.378;20.360;2023-02-27T00:10:36;100498.59;;;0.83;83.00
74542;BME280;63015;45.378;20.360;2023-02-27T00:12:37;100500.47;;;0.87;82.62
74542;BME280;63015;45.378;20.360;2023-02-27T00:14:38;100503.47;;;0.77;82.91
74542;BME280;63015;45.378;20.360;2023-02-27T00:16:38;100489.09;;;0.80;82.67
74542;BME280;63015;45.378;20.360;2023-02-27T00:18:39;100496.03;;;0.83;82.75
74542;BME280;63015;45.378;20.360;2023-02-27T00:20:39;100495.28;;;0.86;82.59
74542;BME280;63015;45.378;20.360;2023-02-27T00:22:40;100501.06;;;0.80;83.26
74542;BME280;63015;45.378;20.360;2023-02-27T00:24:41;100504.44;;;0.79;82.65
74542;BME280;63015;45.378;20.360;2023-02-27T00:26:41;100513.72;;;0.77;83.06
74542;BME280;63015;45.378;20.360;2023-02-27T00:28:42;100521.75;;;0.85;82.87
74542;BME280;63015;45.378;20.360;2023-02-27T00:30:42;100524.63;;;0.92;82.11
74542;BME280;63015;45.378;20.360;2023-02-27T00:32:43;100530.25;;;0.84;82.10
74542;BME280;63015;45.378;20.360;2023-02-27T00:34:44;100534.78;;;0.89;82.64
74542;BME280;63015;45.378;20.360;2023-02-27T00:36:44;100551.41;;;0.78;82.84
74542;BME280;63015;45.378;20.360;2023-02-27T00:38:45;100546.34;;;0.79;82.50
74542;BME280;63015;45.378;20.360;2023-02-27T00:40:45;100541.97;;;0.77;82.70
74542;BME280;63015;45.378;20.360;2023-02-27T00:42:46;100550.53;;;0.77;82.79
74542;BME280;63015;45.378;20.360;2023-02-27T00:44:47;100545.59;;;0.82;82.73
74542;BME280;63015;45.378;20.360;2023-02-27T00:46:48;100557.09;;;0.71;82.98
74542;BME280;63015;45.378;20.360;2023-02-27T00:48:49;100560.56;;;0.71;83.21
74542;BME280;63015;45.378;20.360;2023-02-27T00:50:49;100565.78;;;0.74;82.69
74542;BME280;63015;45.378;20.360;2023-02-27T00:52:50;100562.38;;;0.74;82.80
74542;BME280;63015;45.378;20.360;2023-02-27T00:54:50;100555.78;;;0.59;83.21
74542;BME280;63015;45.378;20.360;2023-02-27T00:56:51;100557.34;;;0.56;83.34
74542;BME280;63015;45.378;20.360;2023-02-27T00:58:51;100560.56;;;0.71;83.13
74542;BME280;63015;45.378;20.360;2023-02-27T01:00:54;100565.38;;;0.63;83.20
74542;BME280;63015;45.378;20.360;2023-02-27T01:02:55;100563.56;;;0.61;83.25
74542;BME280;63015;45.378;20.360;2023-02-27T01:04:57;100566.97;;;0.61;83.32
74542;BME280;63015;45.378;20.360;2023-02-27T01:06:57;100563.91;;;0.70;83.11
74542;BME280;63015;45.378;20.360;2023-02-27T01:09:00;100574.38;;;0.75;82.82
74542;BME280;63015;45.378;20.360;2023-02-27T01:11:00;100577.22;;;0.61;82.93
74542;BME280;63015;45.378;20.360;2023-02-27T01:13:04;100589.69;;;0.52;83.59
74542;BME280;63015;45.378;20.360;2023-02-27T01:15:08;100588.38;;;0.62;83.43
74542;BME280;63015;45.378;20.360;2023-02-27T01:17:09;100584.66;;;0.75;82.92
74542;BME280;63015;45.378;20.360;2023-02-27T01:19:11;100581.56;;;0.62;83.38
74542;BME280;63015;45.378;20.360;2023-02-27T01:21:12;100579.84;;;0.63;83.03
74542;BME280;63015;45.378;20.360;2023-02-27T01:23:12;100584.72;;;0.76;82.64
74542;BME280;63015;45.378;20.360;2023-02-27T01:25:13;100586.31;;;0.74;83.07
74542;BME280;63015;45.378;20.360;2023-02-27T01:27:13;100588.38;;;0.62;82.80
74542;BME280;63015;45.378;20.360;2023-02-27T01:29:14;100584.50;;;0.72;83.02
74542;BME280;63015;45.378;20.360;2023-02-27T01:31:15;100593.63;;;0.65;82.98
74542;BME280;63015;45.378;20.360;2023-02-27T01:33:15;100594.75;;;0.72;82.76
74542;BME280;63015;45.378;20.360;2023-02-27T01:35:16;100588.63;;;0.68;83.17
74542;BME280;63015;45.378;20.360;2023-02-27T01:37:17;100598.03;;;0.68;83.19
74542;BME280;63015;45.378;20.360;2023-02-27T01:39:17;100586.56;;;0.59;83.11
74542;BME280;63015;45.378;20.360;2023-02-27T01:41:18;100589.75;;;0.54;83.48
74542;BME280;63015;45.378;20.360;2023-02-27T01:43:20;100601.00;;;0.57;83.27
74542;BME280;63015;45.378;20.360;2023-02-27T01:47:25;100600.88;;;0.54;83.43
74542;BME280;63015;45.378;20.360;2023-02-27T01:49:32;100614.72;;;0.38;83.55
74542;BME280;63015;45.378;20.360;2023-02-27T01:51:39;100610.53;;;0.40;83.85
74542;BME280;63015;45.378;20.360;2023-02-27T01:53:42;100618.75;;;0.53;83.68
74542;BME280;63015;45.378;20.360;2023-02-27T01:55:46;100620.41;;;0.51;83.55
74542;BME280;63015;45.378;20.360;2023-02-27T01:57:49;100617.09;;;0.53;83.14
74542;BME280;63015;45.378;20.360;2023-02-27T01:59:51;100618.91;;;0.56;83.00
74542;BME280;63015;45.378;20.360;2023-02-27T02:01:52;100617.44;;;0.41;83.54
74542;BME280;63015;45.378;20.360;2023-02-27T02:04:08;100620.13;;;0.44;83.43
74542;BME280;63015;45.378;20.360;2023-02-27T02:06:11;100611.63;;;0.45;83.55
74542;BME280;63015;45.378;20.360;2023-02-27T02:08:19;100622.31;;;0.56;83.66
74542;BME280;63015;45.378;20.360;2023-02-27T02:10:21;100629.44;;;0.62;82.99
74542;BME280;63015;45.378;20.360;2023-02-27T02:12:25;100636.47;;;0.46;83.30
74542;BME280;63015;45.378;20.360;2023-02-27T02:14:27;100641.81;;;0.53;83.54
74542;BME280;63015;45.378;20.360;2023-02-27T02:16:46;100648.53;;;0.49;83.14
74542;BME280;63015;45.378;20.360;2023-02-27T02:35:30;100672.59;;;0.33;83.51
74542;BME280;63015;45.378;20.360;2023-02-27T02:40:34;100671.41;;;0.44;83.18
74542;BME280;63015;45.378;20.360;2023-02-27T02:55:39;100695.22;;;0.42;82.98
74542;BME280;63015;45.378;20.360;2023-02-27T02:57:47;100709.00;;;0.63;82.75
74542;BME280;63015;45.378;20.360;2023-02-27T02:59:57;100705.53;;;0.63;82.51
74542;BME280;63015;45.378;20.360;2023-02-27T03:02:24;100711.97;;;0.53;82.56
74542;BME280;63015;45.378;20.360;2023-02-27T03:04:41;100713.09;;;0.40;82.80
74542;BME280;63015;45.378;20.360;2023-02-27T03:06:58;100722.34;;;0.56;82.47
74542;BME280;63015;45.378;20.360;2023-02-27T03:09:12;100728.50;;;0.60;82.59
74542;BME280;63015;45.378;20.360;2023-02-27T03:11:15;100722.41;;;0.58;82.43
74542;BME280;63015;45.378;20.360;2023-02-27T03:13:21;100729.59;;;0.65;82.11
74542;BME280;63015;45.378;20.360;2023-02-27T03:15:37;100730.44;;;0.46;82.39
74542;BME280;63015;45.378;20.360;2023-02-27T03:17:59;100729.19;;;0.56;82.50
74542;BME280;63015;45.378;20.360;2023-02-27T03:20:06;100723.44;;;0.61;82.28
74542;BME280;63015;45.378;20.360;2023-02-27T03:22:17;100737.16;;;0.62;82.21
74542;BME280;63015;45.378;20.360;2023-02-27T03:24:29;100737.72;;;0.37;83.04
74542;BME280;63015;45.378;20.360;2023-02-27T03:26:35;100735.16;;;0.37;83.13
74542;BME280;63015;45.378;20.360;2023-02-27T03:28:45;100754.06;;;0.39;82.73
74542;BME280;63015;45.378;20.360;2023-02-27T03:30:56;100756.25;;;0.49;82.85
74542;BME280;63015;45.378;20.360;2023-02-27T03:33:01;100753.13;;;0.56;82.68
74542;BME280;63015;45.378;20.360;2023-02-27T03:35:06;100759.06;;;0.55;82.25
74542;BME280;63015;45.378;20.360;2023-02-27T03:37:29;100759.16;;;0.57;82.45
74542;BME280;63015;45.378;20.360;2023-02-27T03:39:46;100769.59;;;0.42;82.77
74542;BME280;63015;45.378;20.360;2023-02-27T03:42:09;100768.22;;;0.50;82.78
74542;BME280;63015;45.378;20.360;2023-02-27T03:44:59;100780.09;;;0.66;82.27
74542;BME280;63015;45.378;20.360;2023-02-27T03:47:01;100780.75;;;0.62;82.17
74542;BME280;63015;45.378;20.360;2023-02-27T03:49:02;100788.69;;;0.68;81.73
74542;BME280;63015;45.378;20.360;2023-02-27T03:51:04;100795.88;;;0.56;81.79
74542;BME280;63015;45.378;20.360;2023-02-27T03:53:10;100792.41;;;0.55;82.03
74542;BME280;63015;45.378;20.360;2023-02-27T03:55:25;100794.13;;;0.37;82.28
74542;BME280;63015;45.378;20.360;2023-02-27T03:57:28;100796.63;;;0.35;82.66
74542;BME280;63015;45.378;20.360;2023-02-27T03:59:30;100802.97;;;0.43;82.42
74542;BME280;63015;45.378;20.360;2023-02-27T04:01:32;100806.22;;;0.39;82.44
74542;BME280;63015;45.378;20.360;2023-02-27T04:03:38;100820.19;;;0.46;82.41
74542;BME280;63015;45.378;20.360;2023-02-27T04:05:45;100817.84;;;0.51;82.23
74542;BME280;63015;45.378;20.360;2023-02-27T04:08:24;100825.09;;;0.59;81.77
74542;BME280;63015;45.378;20.360;2023-02-27T04:17:16;100845.53;;;0.58;nan
74542;BME280;63015;45.378;20.360;2023-02-27T04:23:58;100855.59;;;0.35;81.85
74542;BME280;63015;45.378;20.360;2023-02-27T04:26:30;100854.69;;;0.53;81.75
74542;BME280;63015;45.378;20.360;2023-02-27T04:28:42;100845.63;;;0.59;81.49
74542;BME280;63015;45.378;20.360;2023-02-27T04:33:08;100866.53;;;0.31;81.69
74542;BME280;63015;45.378;20.360;2023-02-27T04:35:16;100875.75;;;0.45;82.11
74542;BME280;63015;45.378;20.360;2023-02-27T04:37:27;100879.84;;;0.24;81.94
74542;BME280;63015;45.378;20.360;2023-02-27T04:39:40;100872.94;;;0.41;81.92
74542;BME280;63015;45.378;20.360;2023-02-27T04:41:44;100891.19;;;0.47;81.67
74542;BME280;63015;45.378;20.360;2023-02-27T04:43:47;100892.34;;;0.54;81.43
74542;BME280;63015;45.378;20.360;2023-02-27T04:45:50;100900.34;;;0.42;81.21
74542;BME280;63015;45.378;20.360;2023-02-27T04:47:57;100903.22;;;0.48;81.11
74542;BME280;63015;45.378;20.360;2023-02-27T04:50:08;100907.97;;;0.40;81.55
74542;BME280;63015;45.378;20.360;2023-02-27T04:52:17;100909.06;;;0.45;81.30
74542;BME280;63015;45.378;20.360;2023-02-27T04:54:38;100910.19;;;0.32;81.28
74542;BME280;63015;45.378;20.360;2023-02-27T04:56:46;100912.38;;;0.43;81.06
74542;BME280;63015;45.378;20.360;2023-02-27T04:58:55;100913.47;;;0.30;81.17
74542;BME280;63015;45.378;20.360;2023-02-27T05:01:05;100925.75;;;0.37;80.72
74542;BME280;63015;45.378;20.360;2023-02-27T05:03:15;100925.03;;;0.40;80.84
74542;BME280;63015;45.378;20.360;2023-02-27T05:05:21;100926.28;;;0.48;81.05
74542;BME280;63015;45.378;20.360;2023-02-27T05:07:33;100930.25;;;0.59;80.88
74542;BME280;63015;45.378;20.360;2023-02-27T05:09:45;100924.03;;;0.54;80.36
74542;BME280;63015;45.378;20.360;2023-02-27T05:14:05;100923.44;;;0.60;80.56
74542;BME280;63015;45.378;20.360;2023-02-27T05:16:10;100929.16;;;0.54;80.40
74542;BME280;63015;45.378;20.360;2023-02-27T05:18:17;100929.38;;;0.59;80.23
74542;BME280;63015;45.378;20.360;2023-02-27T05:20:18;100936.56;;;0.48;80.37
74542;BME280;63015;45.378;20.360;2023-02-27T05:22:24;100944.03;;;0.61;80.18
74542;BME280;63015;45.378;20.360;2023-02-27T05:29:20;100961.31;;;0.65;79.83
74542;BME280;63015;45.378;20.360;2023-02-27T05:31:33;100964.34;;;0.57;79.43
74542;BME280;63015;45.378;20.360;2023-02-27T05:33:46;100977.06;;;0.55;79.71
74542;BME280;63015;45.378;20.360;2023-02-27T05:38:33;100976.88;;;0.69;79.62
74542;BME280;63015;45.378;20.360;2023-02-27T05:40:41;100973.34;;;0.67;79.63
74542;BME280;63015;45.378;20.360;2023-02-27T05:42:55;100981.41;;;0.74;79.42
74542;BME280;63015;45.378;20.360;2023-02-27T05:45:02;100981.47;;;0.76;79.20
74542;BME280;63015;45.378;20.360;2023-02-27T05:47:12;100993.72;;;0.81;79.24
74542;BME280;63015;45.378;20.360;2023-02-27T05:49:19;100995.19;;;0.76;78.86
74542;BME280;63015;45.378;20.360;2023-02-27T05:51:26;100998.69;;;0.78;78.72
74542;BME280;63015;45.378;20.360;2023-02-27T05:53:33;100995.41;;;0.81;78.68
74542;BME280;63015;45.378;20.360;2023-02-27T05:55:37;100990.53;;;0.51;78.03
74542;BME280;63015;45.378;20.360;2023-02-27T05:57:43;101000.81;;;0.69;78.62
74542;BME280;63015;45.378;20.360;2023-02-27T05:59:51;101004.19;;;0.68;78.33
74542;BME280;63015;45.378;20.360;2023-02-27T06:01:54;101008.81;;;0.57;78.08
74542;BME280;63015;45.378;20.360;2023-02-27T06:03:55;101014.69;;;0.73;78.71
74542;BME280;63015;45.378;20.360;2023-02-27T06:05:57;101010.97;;;0.84;78.48
74542;BME280;63015;45.378;20.360;2023-02-27T06:07:58;101020.63;;;0.90;78.35
74542;BME280;63015;45.378;20.360;2023-02-27T06:10:00;101032.06;;;0.96;78.09
74542;BME280;63015;45.378;20.360;2023-02-27T06:12:01;101031.25;;;0.97;77.48
74542;BME280;63015;45.378;20.360;2023-02-27T06:14:01;101028.84;;;1.01;77.62
74542;BME280;63015;45.378;20.360;2023-02-27T06:16:02;101036.47;;;0.99;77.78
74542;BME280;63015;45.378;20.360;2023-02-27T06:18:03;101035.81;;;1.03;77.59
74542;BME280;63015;45.378;20.360;2023-02-27T06:20:05;101029.34;;;0.93;77.15
74542;BME280;63015;45.378;20.360;2023-02-27T06:22:08;101037.56;;;1.04;77.51
74542;BME280;63015;45.378;20.360;2023-02-27T06:24:08;101028.19;;;1.05;77.24
74542;BME280;63015;45.378;20.360;2023-02-27T06:26:09;101033.44;;;1.08;77.12
74542;BME280;63015;45.378;20.360;2023-02-27T06:28:13;101047.91;;;1.06;76.85
74542;BME280;63015;45.378;20.360;2023-02-27T06:30:14;101055.09;;;0.95;76.88
74542;BME280;63015;45.378;20.360;2023-02-27T06:32:14;101058.38;;;1.10;77.50
74542;BME280;63015;45.378;20.360;2023-02-27T06:34:15;101060.59;;;1.21;77.23
74542;BME280;63015;45.378;20.360;2023-02-27T06:36:15;101058.09;;;1.22;76.80
74542;BME280;63015;45.378;20.360;2023-02-27T06:38:16;101062.84;;;1.14;75.92
74542;BME280;63015;45.378;20.360;2023-02-27T06:40:17;101058.31;;;1.27;76.68
74542;BME280;63015;45.378;20.360;2023-02-27T06:42:18;101068.88;;;1.33;76.12
74542;BME280;63015;45.378;20.360;2023-02-27T06:44:19;101068.69;;;1.48;76.53
74542;BME280;63015;45.378;20.360;2023-02-27T06:46:19;101071.28;;;1.30;75.35
74542;BME280;63015;45.378;20.360;2023-02-27T06:48:20;101072.59;;;1.40;75.29
74542;BME280;63015;45.378;20.360;2023-02-27T06:50:21;101066.09;;;1.28;74.74
74542;BME280;63015;45.378;20.360;2023-02-27T06:52:22;101061.88;;;1.48;75.64
74542;BME280;63015;45.378;20.360;2023-02-27T06:54:22;101063.16;;;1.58;75.32
74542;BME280;63015;45.378;20.360;2023-02-27T06:56:23;101061.78;;;1.65;75.58
74542;BME280;63015;45.378;20.360;2023-02-27T06:58:23;101063.41;;;1.63;74.82
74542;BME280;63015;45.378;20.360;2023-02-27T07:00:24;101067.38;;;1.56;74.82
74542;BME280;63015;45.378;20.360;2023-02-27T07:02:25;101065.16;;;1.64;74.44
74542;BME280;63015;45.378;20.360;2023-02-27T07:04:25;101063.47;;;1.64;74.61
74542;BME280;63015;45.378;20.360;2023-02-27T07:06:26;101069.81;;;1.35;73.76
74542;BME280;63015;45.378;20.360;2023-02-27T07:08:27;101060.50;;;1.37;74.60
74542;BME280;63015;45.378;20.360;2023-02-27T07:10:27;101068.91;;;1.53;74.62
74542;BME280;63015;45.378;20.360;2023-02-27T07:12:28;101072.81;;;1.62;74.35
74542;BME280;63015;45.378;20.360;2023-02-27T07:14:29;101085.06;;;1.50;74.12
74542;BME280;63015;45.378;20.360;2023-02-27T07:16:29;101098.28;;;1.58;73.75
74542;BME280;63015;45.378;20.360;2023-02-27T07:18:30;101108.75;;;1.80;74.12
74542;BME280;63015;45.378;20.360;2023-02-27T07:20:30;101113.69;;;1.95;74.21
74542;BME280;63015;45.378;20.360;2023-02-27T07:22:31;101114.69;;;1.99;73.44
74542;BME280;63015;45.378;20.360;2023-02-27T07:24:32;101115.91;;;2.07;73.38
74542;BME280;63015;45.378;20.360;2023-02-27T07:26:32;101129.13;;;2.15;73.77
74542;BME280;63015;45.378;20.360;2023-02-27T07:28:33;101127.50;;;2.17;73.37
74542;BME280;63015;45.378;20.360;2023-02-27T07:30:33;101127.84;;;2.25;73.31
74542;BME280;63015;45.378;20.360;2023-02-27T07:32:34;101127.22;;;2.30;73.18
74542;BME280;63015;45.378;20.360;2023-02-27T07:34:35;101136.59;;;2.28;72.16
74542;BME280;63015;45.378;20.360;2023-02-27T07:36:35;101130.28;;;2.22;72.33
74542;BME280;63015;45.378;20.360;2023-02-27T07:38:36;101119.66;;;2.14;72.02
74542;BME280;63015;45.378;20.360;2023-02-27T07:40:39;101126.63;;;2.36;72.57
74542;BME280;63015;45.378;20.360;2023-02-27T07:42:39;101127.09;;;2.27;71.24
74542;BME280;63015;45.378;20.360;2023-02-27T07:44:40;101134.69;;;2.44;72.24
74542;BME280;63015;45.378;20.360;2023-02-27T07:46:40;101131.88;;;2.59;72.42
74542;BME280;63015;45.378;20.360;2023-02-27T07:48:40;101139.00;;;2.65;72.13
74542;BME280;63015;45.378;20.360;2023-02-27T07:50:41;101144.69;;;2.77;72.30
74542;BME280;63015;45.378;20.360;2023-02-27T07:52:42;101149.13;;;2.81;72.45
74542;BME280;63015;45.378;20.360;2023-02-27T07:54:43;101148.31;;;2.82;72.41
74542;BME280;63015;45.378;20.360;2023-02-27T07:56:44;101145.19;;;2.89;72.23
74542;BME280;63015;45.378;20.360;2023-02-27T07:58:44;101157.25;;;2.90;72.05
74542;BME280;63015;45.378;20.360;2023-02-27T08:00:44;101150.59;;;2.95;72.16
74542;BME280;63015;45.378;20.360;2023-02-27T08:02:45;101169.88;;;3.05;71.47
74542;BME280;63015;45.378;20.360;2023-02-27T08:04:45;101173.81;;;2.97;70.17
74542;BME280;63015;45.378;20.360;2023-02-27T08:06:46;101183.53;;;2.83;70.14
74542;BME280;63015;45.378;20.360;2023-02-27T08:08:46;101181.81;;;3.03;71.54
74542;BME280;63015;45.378;20.360;2023-02-27T08:10:48;101184.38;;;3.03;71.09
74542;BME280;63015;45.378;20.360;2023-02-27T08:12:49;101187.59;;;2.98;70.96
74542;BME280;63015;45.378;20.360;2023-02-27T08:14:50;101195.44;;;3.01;71.08
74542;BME280;63015;45.378;20.360;2023-02-27T08:16:50;101203.22;;;3.02;70.60
74542;BME280;63015;45.378;20.360;2023-02-27T08:18:50;101198.88;;;3.01;70.46
74542;BME280;63015;45.378;20.360;2023-02-27T08:20:54;101210.88;;;3.01;70.21
74542;BME280;63015;45.378;20.360;2023-02-27T08:22:54;101223.06;;;2.64;66.51
74542;BME280;63015;45.378;20.360;2023-02-27T08:24:55;101208.41;;;2.83;68.74
74542;BME280;63015;45.378;20.360;2023-02-27T08:26:55;101220.19;;;2.77;68.75
74542;BME280;63015;45.378;20.360;2023-02-27T08:28:56;101221.00;;;2.76;68.28
74542;BME280;63015;45.378;20.360;2023-02-27T08:30:57;101223.56;;;2.76;68.63
74542;BME280;63015;45.378;20.360;2023-02-27T08:32:57;101226.38;;;2.81;68.80
74542;BME280;63015;45.378;20.360;2023-02-27T08:34:58;101229.38;;;2.92;69.62
74542;BME280;63015;45.378;20.360;2023-02-27T08:36:58;101226.75;;;2.90;69.25
74542;BME280;63015;45.378;20.360;2023-02-27T08:38:59;101232.97;;;2.95;69.30
74542;BME280;63015;45.378;20.360;2023-02-27T08:40:59;101237.00;;;2.89;68.64
74542;BME280;63015;45.378;20.360;2023-02-27T08:43:00;101233.34;;;2.84;68.10
74542;BME280;63015;45.378;20.360;2023-02-27T08:45:00;101228.84;;;2.99;68.87
74542;BME280;63015;45.378;20.360;2023-02-27T08:47:02;101231.31;;;3.17;68.90
74542;BME280;63015;45.378;20.360;2023-02-27T08:49:02;101234.97;;;3.22;68.05
74542;BME280;63015;45.378;20.360;2023-02-27T08:51:03;101231.59;;;3.04;67.95
74542;BME280;63015;45.378;20.360;2023-02-27T08:53:03;101214.75;;;3.10;68.52
74542;BME280;63015;45.378;20.360;2023-02-27T08:55:04;101213.66;;;3.05;66.10
74542;BME280;63015;45.378;20.360;2023-02-27T08:57:05;101207.91;;;2.91;66.58
74542;BME280;63015;45.378;20.360;2023-02-27T08:59:06;101202.84;;;3.14;67.16
74542;BME280;63015;45.378;20.360;2023-02-27T09:01:06;101212.47;;;3.39;67.46
74542;BME280;63015;45.378;20.360;2023-02-27T09:03:07;101214.38;;;3.22;63.99
74542;BME280;63015;45.378;20.360;2023-02-27T09:05:07;101211.66;;;3.61;66.79
74542;BME280;63015;45.378;20.360;2023-02-27T09:07:08;101211.22;;;3.51;64.61
74542;BME280;63015;45.378;20.360;2023-02-27T09:09:09;101212.63;;;3.86;66.13
74542;BME280;63015;45.378;20.360;2023-02-27T09:11:09;101221.72;;;3.55;63.12
74542;BME280;63015;45.378;20.360;2023-02-27T09:13:10;101216.34;;;3.72;63.16
74542;BME280;63015;45.378;20.360;2023-02-27T09:15:10;101224.94;;;3.93;64.81
74542;BME280;63015;45.378;20.360;2023-02-27T09:17:11;101231.69;;;3.48;62.96
74542;BME280;63015;45.378;20.360;2023-02-27T09:19:11;101223.97;;;3.69;64.41
74542;BME280;63015;45.378;20.360;2023-02-27T09:21:13;101236.31;;;3.34;61.35
74542;BME280;63015;45.378;20.360;2023-02-27T09:23:14;101238.88;;;3.55;63.87
74542;BME280;63015;45.378;20.360;2023-02-27T09:25:14;101242.47;;;3.58;64.44
74542;BME280;63015;45.378;20.360;2023-02-27T09:27:15;101250.38;;;3.63;62.56
74542;BME280;63015;45.378;20.360;2023-02-27T09:29:16;101247.41;;;3.54;62.29
74542;BME280;63015;45.378;20.360;2023-02-27T09:31:17;101243.84;;;3.50;63.62
74542;BME280;63015;45.378;20.360;2023-02-27T09:33:17;101247.16;;;3.26;63.44
74542;BME280;63015;45.378;20.360;2023-02-27T09:35:18;101252.38;;;3.28;63.72
74542;BME280;63015;45.378;20.360;2023-02-27T09:37:22;101262.22;;;3.17;63.43
74542;BME280;63015;45.378;20.360;2023-02-27T09:39:24;101255.66;;;3.45;64.61
74542;BME280;63015;45.378;20.360;2023-02-27T09:43:57;101271.25;;;3.69;64.15
74542;BME280;63015;45.378;20.360;2023-02-27T09:45:58;101268.06;;;3.75;64.20
74542;BME280;63015;45.378;20.360;2023-02-27T09:48:10;101269.34;;;3.86;63.29
74542;BME280;63015;45.378;20.360;2023-02-27T09:50:30;101282.13;;;3.83;62.39
74542;BME280;63015;45.378;20.360;2023-02-27T09:52:35;101284.66;;;3.82;63.18
74542;BME280;63015;45.378;20.360;2023-02-27T09:54:36;101282.78;;;4.00;63.23
74542;BME280;63015;45.378;20.360;2023-02-27T09:57:17;101285.09;;;3.71;59.74
74542;BME280;63015;45.378;20.360;2023-02-27T09:59:34;101289.09;;;3.86;62.47
74542;BME280;63015;45.378;20.360;2023-02-27T10:04:29;101293.75;;;3.94;62.75
74542;BME280;63015;45.378;20.360;2023-02-27T10:06:37;101284.91;;;4.10;63.26
74542;BME280;63015;45.378;20.360;2023-02-27T10:08:51;101288.75;;;4.20;62.70
74542;BME280;63015;45.378;20.360;2023-02-27T10:11:15;101300.78;;;3.99;60.26
74542;BME280;63015;45.378;20.360;2023-02-27T10:15:28;101288.84;;;4.01;62.12
74542;BME280;63015;45.378;20.360;2023-02-27T10:17:45;101282.00;;;3.80;61.34
74542;BME280;63015;45.378;20.360;2023-02-27T10:19:51;101287.09;;;3.36;61.36
74542;BME280;63015;45.378;20.360;2023-02-27T10:21:54;101293.59;;;3.28;63.17
74542;BME280;63015;45.378;20.360;2023-02-27T10:26:07;101295.75;;;2.98;62.61
74542;BME280;63015;45.378;20.360;2023-02-27T10:28:19;101302.03;;;2.85;63.04
74542;BME280;63015;45.378;20.360;2023-02-27T10:30:25;101300.16;;;2.62;62.25
74542;BME280;63015;45.378;20.360;2023-02-27T10:32:31;101297.22;;;3.12;63.90
74542;BME280;63015;45.378;20.360;2023-02-27T10:34:36;101297.78;;;3.45;63.25
74542;BME280;63015;45.378;20.360;2023-02-27T10:36:38;101290.75;;;3.62;62.71
74542;BME280;63015;45.378;20.360;2023-02-27T10:38:46;101302.13;;;3.47;62.06
74542;BME280;63015;45.378;20.360;2023-02-27T10:40:48;101298.22;;;3.56;62.29
74542;BME280;63015;45.378;20.360;2023-02-27T10:42:51;101292.81;;;3.71;62.70
74542;BME280;63015;45.378;20.360;2023-02-27T10:44:52;101301.88;;;3.83;62.64
74542;BME280;63015;45.378;20.360;2023-02-27T10:46:53;101304.53;;;4.07;62.07
74542;BME280;63015;45.378;20.360;2023-02-27T10:48:54;101301.41;;;4.14;62.69
74542;BME280;63015;45.378;20.360;2023-02-27T10:51:24;101310.03;;;4.37;62.67
74542;BME280;63015;45.378;20.360;2023-02-27T10:53:26;101309.75;;;4.30;61.69
74542;BME280;63015;45.378;20.360;2023-02-27T10:55:35;101309.19;;;3.93;61.19
74542;BME280;63015;45.378;20.360;2023-02-27T10:57:41;101312.28;;;4.07;61.12
74542;BME280;63015;45.378;20.360;2023-02-27T10:59:49;101305.81;;;4.17;60.32
74542;BME280;63015;45.378;20.360;2023-02-27T11:04:23;101304.53;;;3.84;61.27
74542;BME280;63015;45.378;20.360;2023-02-27T11:06:25;101292.78;;;3.70;62.41
74542;BME280;63015;45.378;20.360;2023-02-27T11:08:28;101284.94;;;4.33;61.68
74542;BME280;63015;45.378;20.360;2023-02-27T11:10:30;101285.56;;;4.50;62.04
74542;BME280;63015;45.378;20.360;2023-02-27T11:12:33;101284.22;;;4.84;61.40
74542;BME280;63015;45.378;20.360;2023-02-27T11:14:33;101283.91;;;4.99;60.29
74542;BME280;63015;45.378;20.360;2023-02-27T11:16:46;101272.09;;;5.06;59.31
74542;BME280;63015;45.378;20.360;2023-02-27T11:18:50;101289.31;;;5.05;60.17
74542;BME280;63015;45.378;20.360;2023-02-27T11:20:52;101298.25;;;4.67;59.03
74542;BME280;63015;45.378;20.360;2023-02-27T11:25:20;101299.72;;;4.37;58.95
74542;BME280;63015;45.378;20.360;2023-02-27T11:27:26;101297.00;;;4.57;60.97
74542;BME280;63015;45.378;20.360;2023-02-27T11:29:28;101299.06;;;4.66;60.71
74542;BME280;63015;45.378;20.360;2023-02-27T11:31:30;101301.22;;;5.02;61.06
74542;BME280;63015;45.378;20.360;2023-02-27T11:33:38;101304.31;;;4.69;60.74
74542;BME280;63015;45.378;20.360;2023-02-27T11:35:39;101294.91;;;4.93;61.19
74542;BME280;63015;45.378;20.360;2023-02-27T11:37:40;101299.22;;;5.19;61.34
74542;BME280;63015;45.378;20.360;2023-02-27T11:39:49;101291.69;;;5.25;61.55
74542;BME280;63015;45.378;20.360;2023-02-27T11:41:51;101291.22;;;5.11;60.83
74542;BME280;63015;45.378;20.360;2023-02-27T11:43:52;101284.72;;;5.22;60.48
74542;BME280;63015;45.378;20.360;2023-02-27T11:45:58;101291.75;;;5.02;61.00
74542;BME280;63015;45.378;20.360;2023-02-27T11:48:07;101293.97;;;5.16;61.69
74542;BME280;63015;45.378;20.360;2023-02-27T11:54:53;101304.81;;;4.58;60.45
74542;BME280;63015;45.378;20.360;2023-02-27T11:59:12;101301.06;;;4.73;61.40
74542;BME280;63015;45.378;20.360;2023-02-27T12:01:50;101309.25;;;5.09;62.01
74542;BME280;63015;45.378;20.360;2023-02-27T12:04:04;101305.41;;;5.22;61.24
74542;BME280;63015;45.378;20.360;2023-02-27T12:06:16;101313.59;;;5.10;59.95
74542;BME280;63015;45.378;20.360;2023-02-27T12:08:59;101313.69;;;5.14;61.48
74542;BME280;63015;45.378;20.360;2023-02-27T12:11:02;101319.59;;;5.09;60.13